Terminal Aerodrome Forecast
Issued by NWS

Home | Current Version | Previous Version | Text Only | Print | Product List | Glossary On
Versions: 1 2 3 4 5 6 7 8 9 10 11 12 13 14
000
FTUS42 KTBW 041131
TAFPIE
TAF
KPIE 041131Z 0412/0512 29004KT P6SM VCTS SCT025CB SCT250
     FM041600 32006KT P6SM VCTS SCT030CB SCT250
     FM041900 32007KT P6SM SCT040 BKN200
     FM050300 VRB04KT P6SM SCT035 SCT250=

USA.gov is the U.S. government's official web portal to all federal, state and local government web resources and services.